Terminal Aerodrome Forecast
Issued by NWS Melbourne, FL

Home | Current Version | Previous Version | Text Only | Print | Product List | Glossary On
Versions: 1 2 3 4 5 6 7 8 9 10 11 12 13 14 15 16 17 18 19 20 21 22 23 24
167
FTUS42 KMLB 191138
TAFMCO
TAF
KMCO 191138Z 1912/2012 36005KT P6SM FEW025 BKN100
     FM191500 03010KT P6SM SCT030 BKN100
     FM200100 07005KT P6SM FEW040 SCT250=

USA.gov is the U.S. government's official web portal to all federal, state and local government web resources and services.